createdAt,value
2022-08-18T00:01:16.011Z,63.30
2022-08-18T00:03:55.396Z,63.30
2022-08-18T00:06:28.902Z,63.40
2022-08-18T00:08:58.075Z,63.30
2022-08-18T00:11:28.328Z,63.30
2022-08-18T00:14:11.788Z,63.30
2022-08-18T00:16:48.634Z,63.30
2022-08-18T00:19:16.848Z,63.40
2022-08-18T00:21:45.914Z,63.50
2022-08-18T00:24:13.886Z,63.30
2022-08-18T00:26:43.148Z,63.30
2022-08-18T00:29:16.605Z,63.20
2022-08-18T00:31:44.505Z,63.10
2022-08-18T00:34:12.473Z,63.20
2022-08-18T00:36:41.101Z,63.10
2022-08-18T00:39:09.102Z,63.10
2022-08-18T00:41:37.176Z,63.20
2022-08-18T00:44:06.536Z,63.30
2022-08-18T00:46:36.347Z,63.60
2022-08-18T00:49:06.085Z,63.50
2022-08-18T00:51:40.445Z,63.30
2022-08-18T00:54:12.876Z,63.40
2022-08-18T00:56:45.321Z,63.40
2022-08-18T00:59:21.593Z,63.30
2022-08-18T01:01:54.329Z,63.30
2022-08-18T01:04:48.964Z,63.60
2022-08-18T01:07:21.146Z,63.70
2022-08-18T01:09:49.617Z,63.70
2022-08-18T01:12:45.901Z,63.70
2022-08-18T01:15:08.228Z,63.80
2022-08-18T01:18:13.664Z,63.90
2022-08-18T01:21:15.126Z,63.90
2022-08-18T01:23:45.785Z,64.00
2022-08-18T01:26:14.184Z,64.00
2022-08-18T01:28:45.060Z,64.10
2022-08-18T01:31:29.415Z,64.10
2022-08-18T01:33:58.893Z,64.10
2022-08-18T01:36:26.840Z,63.90
2022-08-18T01:38:56.045Z,64.10
2022-08-18T01:41:30.276Z,64.20
2022-08-18T01:43:59.448Z,64.10
2022-08-18T01:46:28.733Z,64.10
2022-08-18T01:48:58.442Z,64.20
2022-08-18T01:51:40.181Z,64.20
2022-08-18T01:54:12.752Z,64.10
2022-08-18T01:56:42.195Z,64.20
2022-08-18T01:59:16.369Z,64.30
2022-08-18T02:01:48.692Z,64.40
2022-08-18T02:04:34.921Z,64.40
2022-08-18T02:07:06.986Z,64.30
2022-08-18T02:09:38.875Z,64.40
2022-08-18T02:12:07.854Z,64.50
2022-08-18T02:14:36.048Z,64.50
2022-08-18T02:17:06.265Z,64.50
2022-08-18T02:19:35.333Z,64.60
2022-08-18T02:22:04.711Z,64.60
2022-08-18T02:24:32.671Z,64.60
2022-08-18T02:27:02.011Z,64.70
2022-08-18T02:29:30.225Z,64.60
2022-08-18T02:31:59.715Z,64.60
2022-08-18T02:34:28.493Z,64.70
2022-08-18T02:36:56.438Z,65.40
2022-08-18T02:39:24.329Z,64.70
2022-08-18T02:41:52.215Z,64.60
2022-08-18T02:44:21.477Z,64.90
2022-08-18T02:46:53.654Z,65.00
2022-08-18T02:49:21.561Z,64.80
2022-08-18T02:51:49.672Z,64.60
2022-08-18T02:54:17.745Z,64.80
2022-08-18T02:56:46.981Z,64.70
2022-08-18T02:59:17.554Z,64.80
2022-08-18T03:01:49.645Z,64.90
2022-08-18T03:04:23.993Z,65.10
2022-08-18T03:06:55.303Z,65.00
2022-08-18T03:09:24.315Z,65.00
2022-08-18T03:11:52.811Z,65.10
2022-08-18T03:14:21.221Z,65.10
2022-08-18T03:16:54.073Z,65.20
2022-08-18T03:19:24.420Z,65.00
2022-08-18T03:21:54.965Z,65.20
2022-08-18T03:24:25.177Z,65.00
2022-08-18T03:26:55.715Z,65.10
2022-08-18T03:29:27.935Z,65.30
2022-08-18T03:32:01.684Z,65.20
2022-08-18T03:34:29.642Z,65.30
2022-08-18T03:36:57.560Z,65.20
2022-08-18T03:39:27.579Z,65.40
2022-08-18T03:41:59.519Z,65.50
2022-08-18T03:44:31.628Z,65.40
2022-08-18T03:47:02.859Z,65.40
2022-08-18T03:49:31.498Z,65.30
2022-08-18T03:52:00.988Z,65.00
2022-08-18T03:54:29.641Z,65.40
2022-08-18T03:56:57.540Z,65.40
2022-08-18T03:59:27.287Z,65.30
2022-08-18T04:01:56.315Z,65.20
2022-08-18T04:04:27.465Z,65.30
2022-08-18T04:06:58.316Z,65.10
2022-08-18T04:09:27.929Z,65.10
2022-08-18T04:11:56.649Z,65.20
2022-08-18T04:14:28.782Z,65.00
2022-08-18T04:16:56.646Z,64.90
2022-08-18T04:19:27.328Z,64.80
2022-08-18T04:21:56.942Z,65.10
2022-08-18T04:24:26.446Z,65.10
2022-08-18T04:26:58.078Z,65.20
2022-08-18T04:29:26.138Z,65.20
2022-08-18T04:31:54.060Z,65.20
2022-08-18T04:34:23.619Z,65.00
2022-08-18T04:36:54.541Z,65.20
2022-08-18T04:39:23.295Z,65.30
2022-08-18T04:41:51.808Z,65.20
2022-08-18T04:44:21.725Z,65.20
2022-08-18T04:46:52.064Z,65.10
2022-08-18T04:49:22.488Z,65.20
2022-08-18T04:52:36.564Z,65.10
2022-08-18T04:54:54.986Z,65.20
2022-08-18T04:57:23.999Z,65.30
2022-08-18T04:59:53.390Z,65.40
2022-08-18T05:02:22.589Z,65.30
2022-08-18T05:04:52.257Z,65.50
2022-08-18T05:07:23.515Z,65.30
2022-08-18T05:09:54.982Z,65.50
2022-08-18T05:12:25.884Z,65.50
2022-08-18T05:14:57.017Z,65.30
2022-08-18T05:17:29.116Z,65.30
2022-08-18T05:19:58.761Z,65.30
2022-08-18T05:22:30.552Z,65.50
2022-08-18T05:25:00.966Z,65.50
2022-08-18T05:27:33.896Z,65.50
2022-08-18T05:30:02.364Z,65.60
2022-08-18T05:32:48.058Z,65.50
2022-08-18T05:35:24.499Z,65.50
2022-08-18T05:38:15.585Z,65.80
2022-08-18T05:40:46.016Z,65.90
2022-08-18T05:43:16.530Z,65.60
2022-08-18T05:45:44.846Z,65.50
2022-08-18T05:48:12.813Z,65.60
2022-08-18T05:50:41.044Z,65.70
2022-08-18T05:53:14.966Z,65.70
2022-08-18T05:56:07.360Z,65.80
2022-08-18T05:58:39.545Z,65.30
2022-08-18T06:01:13.030Z,65.30
2022-08-18T06:03:51.991Z,65.40
2022-08-18T06:06:23.109Z,65.60
2022-08-18T06:08:58.573Z,65.50
2022-08-18T06:11:26.769Z,65.70
2022-08-18T06:13:59.886Z,65.60
2022-08-18T06:16:44.520Z,65.60
2022-08-18T06:19:30.850Z,65.50
2022-08-18T06:22:07.757Z,65.40
2022-08-18T06:24:44.190Z,65.30
2022-08-18T06:27:19.506Z,65.20
2022-08-18T06:30:05.292Z,65.20
2022-08-18T06:32:47.816Z,65.00
2022-08-18T06:35:22.804Z,64.90
2022-08-18T06:38:16.297Z,64.80
2022-08-18T06:40:47.734Z,65.00
2022-08-18T06:43:19.601Z,65.10
2022-08-18T06:45:52.338Z,65.00
2022-08-18T06:48:29.602Z,64.70
2022-08-18T06:51:01.118Z,64.70
2022-08-18T06:53:58.081Z,64.80
2022-08-18T06:56:36.584Z,64.90
2022-08-18T06:59:25.002Z,64.70
2022-08-18T07:01:55.993Z,66.00
2022-08-18T07:04:43.623Z,64.50
2022-08-18T07:07:22.277Z,65.00
2022-08-18T07:09:52.995Z,64.60
2022-08-18T07:12:30.604Z,64.30
2022-08-18T07:15:03.201Z,64.30
2022-08-18T07:17:43.565Z,64.30
2022-08-18T07:20:21.807Z,64.30
2022-08-18T07:22:54.906Z,64.60
2022-08-18T07:25:30.197Z,64.20
2022-08-18T07:28:02.049Z,63.90
2022-08-18T07:30:34.197Z,63.80
2022-08-18T07:33:12.104Z,63.80
2022-08-18T07:35:47.617Z,63.80
2022-08-18T07:41:15.461Z,63.80
2022-08-18T07:43:54.724Z,63.60
2022-08-18T07:46:29.679Z,63.50
2022-08-18T07:48:59.604Z,63.50
2022-08-18T07:51:37.271Z,63.60
2022-08-18T07:54:31.051Z,63.70
2022-08-18T07:57:07.624Z,63.70
2022-08-18T07:59:48.414Z,63.80
2022-08-18T08:02:29.918Z,63.80
2022-08-18T08:05:04.638Z,63.70
2022-08-18T08:07:42.025Z,63.50
2022-08-18T08:10:28.561Z,63.50
2022-08-18T08:13:09.201Z,63.60
2022-08-18T08:15:49.285Z,63.70
2022-08-18T08:18:22.768Z,63.50
2022-08-18T08:20:55.180Z,63.60
2022-08-18T08:23:31.884Z,63.60
2022-08-18T08:26:24.369Z,63.50
2022-08-18T08:29:01.834Z,63.30
2022-08-18T08:31:42.603Z,63.40
2022-08-18T08:34:16.060Z,63.30
2022-08-18T08:36:46.990Z,63.20
2022-08-18T08:39:20.588Z,63.00
2022-08-18T08:42:07.324Z,62.80
2022-08-18T08:44:59.178Z,62.90
2022-08-18T08:47:33.577Z,63.20
2022-08-18T08:50:08.148Z,62.70
2022-08-18T08:52:42.836Z,62.70
2022-08-18T08:55:15.841Z,62.30
2022-08-18T08:57:51.444Z,62.30
2022-08-18T09:00:21.419Z,62.10
2022-08-18T09:03:00.673Z,62.20
2022-08-18T09:05:32.009Z,62.10
2022-08-18T09:08:40.659Z,62.00
2022-08-18T09:11:23.450Z,62.10
2022-08-18T09:14:25.476Z,61.80
2022-08-18T09:17:10.352Z,61.90
2022-08-18T09:19:58.986Z,61.50
2022-08-18T09:22:39.093Z,61.50
2022-08-18T09:25:11.942Z,61.50
2022-08-18T09:28:09.310Z,61.40
2022-08-18T09:30:43.083Z,61.40
2022-08-18T09:33:23.056Z,61.30
2022-08-18T09:36:21.219Z,61.40
2022-08-18T09:39:18.447Z,61.50
2022-08-18T09:41:52.897Z,61.40
2022-08-18T09:44:55.516Z,61.30
2022-08-18T09:47:58.401Z,61.40
2022-08-18T09:50:38.909Z,61.50
2022-08-18T09:53:36.790Z,61.00
2022-08-18T09:56:07.329Z,61.20
2022-08-18T09:58:57.011Z,61.00
2022-08-18T10:01:38.323Z,61.10
2022-08-18T10:07:28.932Z,61.10
2022-08-18T10:10:59.320Z,60.90
2022-08-18T10:13:14.928Z,60.60
2022-08-18T10:19:07.971Z,60.50
2022-08-18T10:22:06.328Z,60.30
2022-08-18T10:24:38.179Z,59.80
2022-08-18T10:27:26.659Z,60.20
2022-08-18T10:29:58.091Z,60.60
2022-08-18T10:32:54.736Z,60.30
2022-08-18T10:35:58.397Z,60.30
2022-08-18T10:38:39.257Z,60.30
2022-08-18T10:41:15.437Z,60.40
2022-08-18T10:43:57.311Z,60.00
2022-08-18T10:46:31.840Z,60.00
2022-08-18T10:49:07.000Z,59.80
2022-08-18T10:51:59.179Z,59.50
2022-08-18T10:54:39.161Z,59.40
2022-08-18T10:57:28.762Z,59.10
2022-08-18T11:00:04.670Z,58.80
2022-08-18T11:03:21.216Z,59.10
2022-08-18T11:05:43.175Z,58.80
2022-08-18T11:08:18.674Z,57.80
2022-08-18T11:11:24.630Z,57.70
2022-08-18T11:13:53.573Z,56.80
2022-08-18T11:16:36.246Z,57.40
2022-08-18T11:19:08.509Z,55.50
2022-08-18T11:21:43.289Z,56.50
2022-08-18T11:24:16.073Z,55.80
2022-08-18T11:26:53.379Z,55.70
2022-08-18T11:29:25.332Z,56.10
2022-08-18T11:31:59.592Z,55.70
2022-08-18T11:34:36.322Z,55.80
2022-08-18T11:37:08.962Z,55.20
2022-08-18T11:39:49.795Z,56.00
2022-08-18T11:42:25.124Z,56.10
2022-08-18T11:44:55.607Z,56.50
2022-08-18T11:47:27.673Z,56.10
2022-08-18T11:50:04.381Z,55.80
2022-08-18T11:52:35.619Z,56.30
2022-08-18T11:55:14.693Z,55.40
2022-08-18T11:57:56.027Z,55.80
2022-08-18T12:00:44.260Z,55.80
2022-08-18T12:03:21.796Z,57.00
2022-08-18T12:05:55.727Z,55.20
2022-08-18T12:11:28.992Z,55.20
2022-08-18T12:14:32.522Z,54.90
2022-08-18T12:16:53.944Z,54.50
2022-08-18T12:19:24.777Z,54.80
2022-08-18T12:21:57.489Z,54.20
2022-08-18T12:24:29.281Z,54.40
2022-08-18T12:27:20.464Z,54.80
2022-08-18T12:29:50.445Z,54.70
2022-08-18T12:32:46.456Z,54.60
2022-08-18T12:35:12.278Z,54.20
2022-08-18T12:38:11.016Z,53.50
2022-08-18T12:40:33.170Z,52.90
2022-08-18T12:43:01.194Z,52.10
2022-08-18T12:45:31.069Z,52.20
2022-08-18T12:48:04.101Z,52.10
2022-08-18T12:50:39.147Z,51.40
2022-08-18T12:53:18.606Z,51.60
2022-08-18T12:55:59.233Z,51.00
2022-08-18T12:58:28.987Z,51.00
2022-08-18T13:00:57.274Z,50.70
2022-08-18T13:03:25.224Z,50.80
2022-08-18T13:05:56.844Z,51.00
2022-08-18T13:08:30.693Z,50.20
2022-08-18T13:11:21.301Z,50.40
2022-08-18T13:13:52.950Z,50.50
2022-08-18T13:16:30.478Z,50.60
2022-08-18T13:19:07.708Z,49.90
2022-08-18T13:21:41.630Z,49.80
2022-08-18T13:24:12.737Z,50.00
2022-08-18T13:26:45.891Z,48.80
2022-08-18T13:29:14.850Z,49.00
2022-08-18T13:31:45.623Z,49.20
2022-08-18T13:34:24.497Z,49.20
2022-08-18T13:36:54.254Z,49.00
2022-08-18T13:39:24.721Z,49.50
2022-08-18T13:42:00.665Z,48.00
2022-08-18T13:44:29.080Z,48.50
2022-08-18T13:46:57.571Z,48.50
2022-08-18T13:49:30.315Z,48.70
2022-08-18T13:52:00.894Z,48.90
2022-08-18T13:54:35.131Z,49.20
2022-08-18T13:57:04.193Z,48.90
2022-08-18T13:59:34.055Z,49.20
2022-08-18T14:02:05.865Z,49.20
2022-08-18T14:04:38.503Z,49.90
2022-08-18T14:07:12.500Z,50.00
2022-08-18T14:09:46.642Z,50.10
2022-08-18T14:12:22.983Z,50.00
2022-08-18T14:14:52.628Z,50.20
2022-08-18T14:17:22.560Z,50.60
2022-08-18T14:20:10.333Z,50.00
2022-08-18T14:23:02.167Z,50.80
2022-08-18T14:25:49.348Z,50.60
2022-08-18T14:28:18.707Z,49.80
2022-08-18T14:30:54.826Z,50.50
2022-08-18T14:33:34.359Z,50.70
2022-08-18T14:36:12.280Z,50.90
2022-08-18T14:38:42.157Z,51.20
2022-08-18T14:41:13.360Z,51.00
2022-08-18T14:44:11.067Z,51.30
2022-08-18T14:46:33.207Z,51.40
2022-08-18T14:49:04.123Z,51.30
2022-08-18T14:51:33.627Z,51.60
2022-08-18T14:54:03.526Z,51.40
2022-08-18T14:56:38.125Z,51.60
2022-08-18T14:59:08.193Z,51.70
2022-08-18T15:01:36.243Z,52.20
2022-08-18T15:04:18.753Z,51.40
2022-08-18T15:06:56.376Z,51.40
2022-08-18T15:09:27.305Z,51.50
2022-08-18T15:11:58.332Z,51.30
2022-08-18T15:14:33.135Z,51.50
2022-08-18T15:17:03.906Z,51.40
2022-08-18T15:20:00.364Z,51.30
2022-08-18T15:22:51.012Z,51.40
2022-08-18T15:25:51.080Z,51.10
2022-08-18T15:28:22.229Z,51.40
2022-08-18T15:33:41.920Z,51.20
2022-08-18T15:36:10.716Z,51.70
2022-08-18T15:38:44.233Z,51.70
2022-08-18T15:41:30.235Z,51.30
2022-08-18T15:43:59.252Z,51.50
2022-08-18T15:46:27.284Z,51.80
2022-08-18T15:48:56.713Z,51.30
2022-08-18T15:51:26.398Z,51.40
2022-08-18T15:54:05.045Z,51.60
2022-08-18T15:56:36.936Z,51.50
2022-08-18T15:59:10.276Z,51.20
2022-08-18T16:01:42.320Z,51.30
2022-08-18T16:04:10.975Z,51.00
2022-08-18T16:06:41.618Z,51.10
2022-08-18T16:09:09.653Z,51.30
2022-08-18T16:11:39.363Z,51.30
2022-08-18T16:14:09.170Z,51.00
2022-08-18T16:16:37.707Z,51.80
2022-08-18T16:19:07.646Z,51.00
2022-08-18T16:21:40.379Z,51.10
2022-08-18T16:24:10.393Z,50.90
2022-08-18T16:26:39.988Z,50.60
2022-08-18T16:29:07.891Z,50.40
2022-08-18T16:31:36.419Z,50.50
2022-08-18T16:34:04.453Z,50.40
2022-08-18T16:36:32.340Z,50.50
2022-08-18T16:39:00.385Z,50.50
2022-08-18T16:41:31.846Z,50.70
2022-08-18T16:44:01.205Z,51.00
2022-08-18T16:46:31.063Z,51.00
2022-08-18T16:48:59.416Z,50.70
2022-08-18T16:51:29.938Z,50.90
2022-08-18T16:53:59.422Z,51.10
2022-08-18T16:56:30.692Z,51.00
2022-08-18T16:59:18.216Z,50.70
2022-08-18T17:02:04.035Z,51.00
2022-08-18T17:04:34.241Z,51.20
2022-08-18T17:07:05.285Z,51.40
2022-08-18T17:09:36.676Z,51.60
2022-08-18T17:12:06.074Z,51.60
2022-08-18T17:14:36.786Z,51.20
2022-08-18T17:17:06.587Z,51.00
2022-08-18T17:19:37.458Z,51.10
2022-08-18T17:22:08.599Z,51.10
2022-08-18T17:24:37.615Z,51.00
2022-08-18T17:27:12.230Z,51.20
2022-08-18T17:30:01.439Z,51.80
2022-08-18T17:35:15.197Z,50.40
2022-08-18T17:37:49.483Z,50.10
2022-08-18T17:40:22.097Z,50.10
2022-08-18T17:42:52.609Z,50.30
2022-08-18T17:45:24.840Z,50.30
2022-08-18T17:48:01.246Z,50.10
2022-08-18T17:50:53.506Z,49.70
2022-08-18T17:53:22.714Z,49.90
2022-08-18T17:55:55.544Z,50.30
2022-08-18T17:58:40.344Z,50.40
2022-08-18T18:01:11.744Z,50.40
2022-08-18T18:03:41.086Z,50.40
2022-08-18T18:06:12.294Z,50.40
2022-08-18T18:08:57.010Z,50.60
2022-08-18T18:11:28.610Z,50.40
2022-08-18T18:13:57.058Z,50.80
2022-08-18T18:16:34.871Z,51.40
2022-08-18T18:19:06.220Z,51.40
2022-08-18T18:21:57.631Z,51.30
2022-08-18T18:24:31.878Z,51.00
2022-08-18T18:27:00.297Z,51.00
2022-08-18T18:29:35.674Z,51.20
2022-08-18T18:32:28.260Z,51.30
2022-08-18T18:35:17.891Z,51.40
2022-08-18T18:37:49.933Z,51.30
2022-08-18T18:40:28.918Z,51.80
2022-08-18T18:42:58.387Z,51.90
2022-08-18T18:45:28.648Z,52.30
2022-08-18T18:48:45.045Z,51.90
2022-08-18T18:51:10.550Z,52.30
2022-08-18T18:53:52.016Z,52.70
2022-08-18T18:56:27.076Z,53.00
2022-08-18T18:59:06.133Z,52.90
2022-08-18T19:01:41.120Z,52.60
2022-08-18T19:04:17.235Z,52.90
2022-08-18T19:06:53.055Z,52.90
2022-08-18T19:09:25.271Z,52.90
2022-08-18T19:12:05.749Z,53.10
2022-08-18T19:14:37.345Z,53.00
2022-08-18T19:17:13.295Z,53.40
2022-08-18T19:19:48.264Z,53.70
2022-08-18T19:22:22.846Z,53.70
2022-08-18T19:25:01.641Z,53.60
2022-08-18T19:27:36.270Z,53.80
2022-08-18T19:30:09.720Z,53.70
2022-08-18T19:32:45.401Z,53.80
2022-08-18T19:35:20.520Z,54.00
2022-08-18T19:38:04.632Z,54.20
2022-08-18T19:40:42.731Z,53.80
2022-08-18T19:43:17.915Z,54.20
2022-08-18T19:45:51.591Z,54.10
2022-08-18T19:48:26.445Z,54.40
2022-08-18T19:51:04.969Z,54.50
2022-08-18T19:53:52.750Z,54.40
2022-08-18T19:56:55.085Z,54.50
2022-08-18T19:59:52.667Z,54.40
2022-08-18T20:02:35.315Z,55.00
2022-08-18T20:05:16.073Z,55.00
2022-08-18T20:08:06.413Z,55.10
2022-08-18T20:10:57.834Z,55.20
2022-08-18T20:13:33.427Z,55.20
2022-08-18T20:16:24.914Z,55.30
2022-08-18T20:18:57.935Z,55.30
2022-08-18T20:21:44.186Z,55.40
2022-08-18T20:24:40.893Z,55.50
2022-08-18T20:27:35.917Z,55.70
2022-08-18T20:30:25.832Z,55.80
2022-08-18T20:33:15.349Z,56.00
2022-08-18T20:35:47.416Z,55.90
2022-08-18T20:38:22.271Z,55.90
2022-08-18T20:40:55.482Z,56.30
2022-08-18T20:43:27.560Z,56.40
2022-08-18T20:46:09.396Z,56.50
2022-08-18T20:49:06.101Z,56.40
2022-08-18T20:51:51.968Z,56.50
2022-08-18T20:54:32.730Z,56.70
2022-08-18T20:57:05.070Z,56.90
2022-08-18T20:59:36.988Z,56.40
2022-08-18T21:02:09.766Z,56.60
2022-08-18T21:04:49.315Z,56.80
2022-08-18T21:07:37.194Z,58.20
2022-08-18T21:10:13.437Z,57.00
2022-08-18T21:12:52.475Z,56.90
2022-08-18T21:15:24.039Z,57.10
2022-08-18T21:17:58.627Z,57.30
2022-08-18T21:20:27.504Z,57.50
2022-08-18T21:23:04.589Z,57.50
2022-08-18T21:25:40.618Z,57.60
2022-08-18T21:28:09.897Z,57.50
2022-08-18T21:30:38.078Z,57.70
2022-08-18T21:33:19.975Z,57.70
2022-08-18T21:35:47.945Z,57.70
2022-08-18T21:38:15.881Z,57.90
2022-08-18T21:40:47.872Z,57.90
2022-08-18T21:43:43.602Z,57.90
2022-08-18T21:46:26.726Z,58.50
2022-08-18T21:48:56.677Z,58.30
2022-08-18T21:51:29.544Z,58.40
2022-08-18T21:53:58.270Z,58.30
2022-08-18T21:56:29.669Z,58.50
2022-08-18T21:59:12.676Z,58.70
2022-08-18T22:01:49.501Z,58.90
2022-08-18T22:04:28.632Z,58.80
2022-08-18T22:06:59.904Z,58.60
2022-08-18T22:09:47.840Z,58.80
2022-08-18T22:12:50.131Z,58.80
2022-08-18T22:15:21.560Z,58.90
2022-08-18T22:17:55.829Z,58.90
2022-08-18T22:20:39.576Z,59.10
2022-08-18T22:23:41.623Z,59.10
2022-08-18T22:26:13.126Z,59.20
2022-08-18T22:28:50.768Z,59.30
2022-08-18T22:31:21.445Z,59.60
2022-08-18T22:33:50.126Z,59.50
2022-08-18T22:36:20.887Z,59.50
2022-08-18T22:38:49.240Z,59.60
2022-08-18T22:41:17.750Z,59.60
2022-08-18T22:43:46.060Z,59.60
2022-08-18T22:46:24.220Z,59.70
2022-08-18T22:48:53.243Z,59.60
2022-08-18T22:51:23.765Z,59.50
2022-08-18T22:53:52.033Z,59.40
2022-08-18T22:56:22.674Z,59.50
2022-08-18T22:59:05.859Z,59.60
2022-08-18T23:01:47.079Z,59.70
2022-08-18T23:04:16.214Z,59.70
2022-08-18T23:06:51.003Z,59.80
2022-08-18T23:09:23.639Z,60.10
2022-08-18T23:11:53.380Z,60.10
2022-08-18T23:14:22.183Z,60.00
2022-08-18T23:16:52.169Z,60.00
2022-08-18T23:19:21.640Z,59.90
2022-08-18T23:21:49.921Z,60.20
2022-08-18T23:24:19.721Z,60.80
2022-08-18T23:26:49.257Z,60.00
2022-08-18T23:29:17.936Z,60.10
2022-08-18T23:31:46.224Z,60.20
2022-08-18T23:34:17.416Z,60.30
2022-08-18T23:36:46.259Z,60.20
2022-08-18T23:39:15.087Z,60.10
2022-08-18T23:41:43.036Z,60.20
2022-08-18T23:44:12.863Z,60.30
2022-08-18T23:46:43.140Z,60.40
2022-08-18T23:49:14.902Z,60.30
2022-08-18T23:51:47.289Z,60.20
2022-08-18T23:54:18.108Z,60.40
2022-08-18T23:56:46.830Z,60.30
2022-08-18T23:59:16.239Z,60.30
